Briny Breezes, Florida
Current Conditions -  °F | °C
As of 6:48 AM on Friday 24 Oct 2014 (Local Time) from KBCT Reporting Station
Overcast Overcast  
Wind Chill: 79°   Ceiling: 3000
Heat Index: 81°   Visibility: 10mi
Dew Point: 68°   Wind: 20mph
Humidity: 69%   Direction: 70°ENE
Pressure: 29.87"   Gusts: NA
Location:  26.5249°N, 80.0659°W
Report Text: KBCT 241048Z 07017KT 10SM OVC030 26/20 A2987
Loading
Personal Weather Stations






























Interactive Weather Map
Tropical Storm Tracking
New forecast layout! Learn more

10-Day Weather Forecast

Advertisements
Track Severe Weather on mobile